createdAt,value
2023-04-28T00:00:11.498Z,0.56
2023-04-28T00:01:11.467Z,0.45
2023-04-28T00:02:11.538Z,0.47
2023-04-28T00:03:11.714Z,0.69
2023-04-28T00:04:11.797Z,0.18
2023-04-28T00:05:11.572Z,0.32
2023-04-28T00:06:11.522Z,0.46
2023-04-28T00:07:11.483Z,0.34
2023-04-28T00:08:11.495Z,0.32
2023-04-28T00:09:11.493Z,0.43
2023-04-28T00:10:11.465Z,0.44
2023-04-28T00:11:11.460Z,0.52
2023-04-28T00:12:11.478Z,0.53
2023-04-28T00:13:11.478Z,0.48
2023-04-28T00:14:11.505Z,0.32
2023-04-28T00:15:11.441Z,0.52
2023-04-28T00:16:11.558Z,0.50
2023-04-28T00:17:11.467Z,0.50
2023-04-28T00:18:11.516Z,0.47
2023-04-28T00:19:11.481Z,0.52
2023-04-28T00:20:11.449Z,0.54
2023-04-28T00:21:11.493Z,0.39
2023-04-28T00:22:11.448Z,0.40
2023-04-28T00:23:11.439Z,0.58
2023-04-28T00:24:11.462Z,0.42
2023-04-28T00:25:11.502Z,0.64
2023-04-28T00:26:11.455Z,0.44
2023-04-28T00:27:11.484Z,0.50
2023-04-28T00:28:12.769Z,0.46
2023-04-28T00:29:11.430Z,0.36
2023-04-28T00:30:11.417Z,0.56
2023-04-28T00:31:11.421Z,0.73
2023-04-28T00:32:11.548Z,0.40
2023-04-28T00:33:11.409Z,0.56
2023-04-28T00:34:11.412Z,0.68
2023-04-28T00:35:11.373Z,0.49
2023-04-28T00:36:11.388Z,0.57
2023-04-28T00:37:11.359Z,0.54
2023-04-28T00:38:11.400Z,0.41
2023-04-28T00:39:11.404Z,0.84
2023-04-28T00:40:11.347Z,0.56
2023-04-28T00:41:11.365Z,0.26
2023-04-28T00:42:11.324Z,0.43
2023-04-28T00:43:11.327Z,0.33
2023-04-28T00:44:11.362Z,0.55
2023-04-28T00:45:11.332Z,0.19
2023-04-28T00:46:11.360Z,0.39
2023-04-28T00:47:11.307Z,0.50
2023-04-28T00:48:11.286Z,0.37
2023-04-28T00:49:11.309Z,0.52
2023-04-28T00:50:11.274Z,0.66
2023-04-28T00:51:11.276Z,0.32
2023-04-28T00:52:11.253Z,0.66
2023-04-28T00:53:11.280Z,0.48
2023-04-28T00:54:11.242Z,0.57
2023-04-28T00:55:11.204Z,0.58
2023-04-28T00:56:11.262Z,0.41
2023-04-28T00:57:11.233Z,0.43
2023-04-28T00:58:11.229Z,0.62
2023-04-28T00:59:11.205Z,0.55
2023-04-28T01:00:11.188Z,0.48
2023-04-28T01:01:11.220Z,0.20
2023-04-28T01:02:11.268Z,0.47
2023-04-28T01:03:11.285Z,0.41
2023-04-28T01:04:11.284Z,0.32
2023-04-28T01:05:11.173Z,0.47
2023-04-28T01:06:11.119Z,0.34
2023-04-28T01:07:11.158Z,0.42
2023-04-28T01:08:11.131Z,0.40
2023-04-28T01:09:11.653Z,0.44
2023-04-28T01:10:11.172Z,0.27
2023-04-28T01:11:11.111Z,0.42
2023-04-28T01:12:11.118Z,0.47
2023-04-28T01:13:11.127Z,0.50
2023-04-28T01:14:11.125Z,0.44
2023-04-28T01:15:11.095Z,0.33
2023-04-28T01:16:11.141Z,0.42
2023-04-28T01:17:11.109Z,0.41
2023-04-28T01:18:11.129Z,0.47
2023-04-28T01:19:11.054Z,0.61
2023-04-28T01:20:11.109Z,0.32
2023-04-28T01:21:11.073Z,0.50
2023-04-28T01:22:11.029Z,0.59
2023-04-28T01:23:11.028Z,0.49
2023-04-28T01:24:11.042Z,0.56
2023-04-28T01:25:11.017Z,0.37
2023-04-28T01:26:11.016Z,0.58
2023-04-28T01:27:11.015Z,0.44
2023-04-28T01:28:11.033Z,0.36
2023-04-28T01:29:11.020Z,0.46
2023-04-28T01:30:11.040Z,0.37
2023-04-28T01:31:11.036Z,0.51
2023-04-28T01:32:10.998Z,0.34
2023-04-28T01:33:11.066Z,0.46
2023-04-28T01:34:10.956Z,0.54
2023-04-28T01:35:10.966Z,0.34
2023-04-28T01:36:10.977Z,0.45
2023-04-28T01:37:10.951Z,0.54
2023-04-28T01:38:10.925Z,0.39
2023-04-28T01:39:10.940Z,0.59
2023-04-28T01:40:10.943Z,0.42
2023-04-28T01:41:10.957Z,0.56
2023-04-28T01:42:10.883Z,0.47
2023-04-28T01:43:10.882Z,0.48
2023-04-28T01:44:10.925Z,0.38
2023-04-28T01:45:10.916Z,0.36
2023-04-28T01:46:10.899Z,0.44
2023-04-28T01:47:10.880Z,0.52
2023-04-28T01:48:10.917Z,0.42
2023-04-28T01:49:10.885Z,0.31
2023-04-28T01:50:10.870Z,0.43
2023-04-28T01:51:10.852Z,0.65
2023-04-28T01:52:10.869Z,0.50
2023-04-28T01:53:10.842Z,0.54
2023-04-28T01:54:10.836Z,0.54
2023-04-28T01:55:10.843Z,0.38
2023-04-28T01:56:10.814Z,0.29
2023-04-28T01:57:10.831Z,0.26
2023-04-28T01:58:10.831Z,0.32
2023-04-28T01:59:10.825Z,0.51
2023-04-28T02:00:10.826Z,0.32
2023-04-28T02:01:10.803Z,0.69
2023-04-28T02:02:10.796Z,0.49
2023-04-28T02:03:10.874Z,0.48
2023-04-28T02:04:10.906Z,0.36
2023-04-28T02:05:10.766Z,0.37
2023-04-28T02:06:10.759Z,0.61
2023-04-28T02:07:10.769Z,0.58
2023-04-28T02:08:10.745Z,0.43
2023-04-28T02:09:10.738Z,0.39
2023-04-28T02:10:10.733Z,0.43
2023-04-28T02:11:10.750Z,0.40
2023-04-28T02:12:10.707Z,0.75
2023-04-28T02:13:10.699Z,0.41
2023-04-28T02:14:10.738Z,0.39
2023-04-28T02:15:10.684Z,0.37
2023-04-28T02:16:10.724Z,0.34
2023-04-28T02:17:10.656Z,0.51
2023-04-28T02:18:10.682Z,0.50
2023-04-28T02:19:10.702Z,0.50
2023-04-28T02:20:10.777Z,0.50
2023-04-28T02:21:10.763Z,0.57
2023-04-28T02:22:10.783Z,0.34
2023-04-28T02:23:10.819Z,0.53
2023-04-28T02:24:10.863Z,0.46
2023-04-28T02:25:10.840Z,0.48
2023-04-28T02:26:10.899Z,0.54
2023-04-28T02:27:10.919Z,0.50
2023-04-28T02:28:10.920Z,0.28
2023-04-28T02:29:10.958Z,0.58
2023-04-28T02:30:10.977Z,0.53
2023-04-28T02:31:11.024Z,0.58
2023-04-28T02:32:11.041Z,0.54
2023-04-28T02:33:11.122Z,0.35
2023-04-28T02:34:11.096Z,0.34
2023-04-28T02:35:11.231Z,0.49
2023-04-28T02:36:11.231Z,0.48
2023-04-28T02:37:11.183Z,0.46
2023-04-28T02:38:11.192Z,0.55
2023-04-28T02:39:11.191Z,0.63
2023-04-28T02:40:11.204Z,0.43
2023-04-28T02:41:11.207Z,0.26
2023-04-28T02:42:11.254Z,0.40
2023-04-28T02:43:11.262Z,0.50
2023-04-28T02:44:11.351Z,0.47
2023-04-28T02:45:11.305Z,0.44
2023-04-28T02:46:11.423Z,0.38
2023-04-28T02:47:11.401Z,0.41
2023-04-28T02:48:11.460Z,0.44
2023-04-28T02:49:11.408Z,0.37
2023-04-28T02:50:11.491Z,0.52
2023-04-28T02:51:11.499Z,0.46
2023-04-28T02:52:11.496Z,0.46
2023-04-28T02:53:11.540Z,0.39
2023-04-28T02:54:11.604Z,0.46
2023-04-28T02:55:11.617Z,0.30
2023-04-28T02:56:11.643Z,0.27
2023-04-28T02:57:11.674Z,0.25
2023-04-28T02:58:11.670Z,0.62
2023-04-28T02:59:11.714Z,0.49
2023-04-28T03:00:11.752Z,0.60
2023-04-28T03:01:11.866Z,0.48
2023-04-28T03:02:11.807Z,0.31
2023-04-28T03:03:11.981Z,0.58
2023-04-28T03:04:11.998Z,0.29
2023-04-28T03:05:11.882Z,0.34
2023-04-28T03:06:11.941Z,0.49
2023-04-28T03:07:11.976Z,0.49
2023-04-28T03:08:12.023Z,0.32
2023-04-28T03:09:12.024Z,0.43
2023-04-28T03:10:12.070Z,0.44
2023-04-28T03:11:12.097Z,0.44
2023-04-28T03:12:12.152Z,0.40
2023-04-28T03:13:12.168Z,0.39
2023-04-28T03:14:12.188Z,0.47
2023-04-28T03:15:14.106Z,0.38
2023-04-28T03:16:12.274Z,0.41
2023-04-28T03:17:12.285Z,0.30
2023-04-28T03:18:12.337Z,0.45
2023-04-28T03:19:12.336Z,0.48
2023-04-28T03:20:12.377Z,0.33
2023-04-28T03:21:12.413Z,0.27
2023-04-28T03:22:12.432Z,0.43
2023-04-28T03:23:12.470Z,0.45
2023-04-28T03:24:12.492Z,0.39
2023-04-28T03:25:12.505Z,0.52
2023-04-28T03:26:12.551Z,0.31
2023-04-28T03:27:12.560Z,0.51
2023-04-28T03:28:12.592Z,0.34
2023-04-28T03:29:12.636Z,0.47
2023-04-28T03:30:12.672Z,0.48
2023-04-28T03:31:12.729Z,0.37
2023-04-28T03:32:12.799Z,0.38
2023-04-28T03:33:12.806Z,0.35
2023-04-28T03:34:12.803Z,0.49
2023-04-28T03:35:12.830Z,0.74
2023-04-28T03:36:12.855Z,0.41
2023-04-28T03:37:12.865Z,0.38
2023-04-28T03:38:12.907Z,0.48
2023-04-28T03:39:12.935Z,0.37
2023-04-28T03:40:12.973Z,0.40
2023-04-28T03:41:13.002Z,0.41
2023-04-28T03:42:13.061Z,0.43
2023-04-28T03:43:13.073Z,0.47
2023-04-28T03:44:13.133Z,0.45
2023-04-28T03:45:13.084Z,0.47
2023-04-28T03:46:13.166Z,0.48
2023-04-28T03:47:13.167Z,0.44
2023-04-28T03:48:13.207Z,0.34
2023-04-28T03:49:13.254Z,0.36
2023-04-28T03:50:13.266Z,0.57
2023-04-28T03:51:13.337Z,0.35
2023-04-28T03:52:13.373Z,0.54
2023-04-28T03:53:13.394Z,0.57
2023-04-28T03:54:13.608Z,0.57
2023-04-28T03:55:13.449Z,0.47
2023-04-28T03:56:13.428Z,0.24
2023-04-28T03:57:13.463Z,0.40
2023-04-28T03:58:13.489Z,0.43
2023-04-28T03:59:13.524Z,0.38
2023-04-28T04:00:13.527Z,0.47
2023-04-28T04:01:13.586Z,0.38
2023-04-28T04:02:13.620Z,0.39
2023-04-28T04:03:13.858Z,0.30
2023-04-28T04:04:13.963Z,0.41
2023-04-28T04:05:13.965Z,0.53
2023-04-28T04:06:13.706Z,0.40
2023-04-28T04:07:13.720Z,0.51
2023-04-28T04:08:13.752Z,0.39
2023-04-28T04:09:13.757Z,0.50
2023-04-28T04:10:13.826Z,0.39
2023-04-28T04:11:13.828Z,0.27
2023-04-28T04:12:13.858Z,0.60
2023-04-28T04:13:13.891Z,0.56
2023-04-28T04:14:14.105Z,0.43
2023-04-28T04:15:13.955Z,0.40
2023-04-28T04:16:14.020Z,0.30
2023-04-28T04:17:14.022Z,0.37
2023-04-28T04:18:14.017Z,0.28
2023-04-28T04:19:14.039Z,0.35
2023-04-28T04:20:14.096Z,0.49
2023-04-28T04:21:14.101Z,0.48
2023-04-28T04:22:14.136Z,0.44
2023-04-28T04:23:14.174Z,0.31
2023-04-28T04:24:14.365Z,0.53
2023-04-28T04:25:14.225Z,0.38
2023-04-28T04:26:14.230Z,0.66
2023-04-28T04:27:14.266Z,0.40
2023-04-28T04:28:14.311Z,0.63
2023-04-28T04:29:14.331Z,0.29
2023-04-28T04:30:14.355Z,0.45
2023-04-28T04:31:14.458Z,0.37
2023-04-28T04:32:14.396Z,0.40
2023-04-28T04:33:14.443Z,0.61
2023-04-28T04:34:14.668Z,0.34
2023-04-28T04:35:14.539Z,0.56
2023-04-28T04:36:14.515Z,0.42
2023-04-28T04:37:14.608Z,0.52
2023-04-28T04:38:14.568Z,0.47
2023-04-28T04:39:14.615Z,0.81
2023-04-28T04:40:14.668Z,0.42
2023-04-28T04:41:14.637Z,0.52
2023-04-28T04:42:23.808Z,0.45
2023-04-28T04:43:15.670Z,0.47
2023-04-28T04:44:14.695Z,0.42
2023-04-28T04:45:14.676Z,0.78
2023-04-28T04:46:14.685Z,0.59
2023-04-28T04:47:14.630Z,0.33
2023-04-28T04:48:14.686Z,0.31
2023-04-28T04:49:14.716Z,0.54
2023-04-28T04:50:14.675Z,0.47
2023-04-28T04:51:14.614Z,0.58
2023-04-28T04:52:14.617Z,0.40
2023-04-28T04:53:16.195Z,0.52
2023-04-28T04:54:14.745Z,0.40
2023-04-28T04:55:14.569Z,0.36
2023-04-28T04:56:14.618Z,0.50
2023-04-28T04:57:14.554Z,0.65
2023-04-28T04:58:14.687Z,0.30
2023-04-28T04:59:14.617Z,0.38
2023-04-28T05:00:14.731Z,0.45
2023-04-28T05:01:14.679Z,0.55
2023-04-28T05:02:14.797Z,0.35
2023-04-28T05:03:14.824Z,0.41
2023-04-28T05:04:14.996Z,0.34
2023-04-28T05:06:14.804Z,0.37
2023-04-28T05:07:14.770Z,0.52
2023-04-28T05:08:14.778Z,0.56
2023-04-28T05:09:14.752Z,0.61
2023-04-28T05:10:14.764Z,0.48
2023-04-28T05:11:14.776Z,0.48
2023-04-28T05:12:14.770Z,0.33
2023-04-28T05:13:14.753Z,0.49
2023-04-28T05:14:14.846Z,0.46
2023-04-28T05:15:14.735Z,0.54
2023-04-28T05:16:14.720Z,0.81
2023-04-28T05:17:14.705Z,1.02
2023-04-28T05:18:14.891Z,1.19
2023-04-28T05:19:14.681Z,0.86
2023-04-28T05:20:14.685Z,1.19
2023-04-28T05:21:14.705Z,1.31
2023-04-28T05:22:14.683Z,1.50
2023-04-28T05:23:14.687Z,1.18
2023-04-28T05:24:14.853Z,1.78
2023-04-28T05:25:14.700Z,1.30
2023-04-28T05:26:14.670Z,0.77
2023-04-28T05:27:14.676Z,1.00
2023-04-28T05:28:14.718Z,0.90
2023-04-28T05:29:14.701Z,1.08
2023-04-28T05:30:14.693Z,1.12
2023-04-28T05:31:14.708Z,1.23
2023-04-28T05:32:14.695Z,1.54
2023-04-28T05:33:14.702Z,1.62
2023-04-28T05:34:14.883Z,1.57
2023-04-28T05:35:14.762Z,1.76
2023-04-28T05:36:14.806Z,1.57
2023-04-28T05:37:14.812Z,1.92
2023-04-28T05:38:14.856Z,1.74
2023-04-28T05:39:14.905Z,2.00
2023-04-28T05:40:14.910Z,2.16
2023-04-28T05:41:14.899Z,2.26
2023-04-28T05:42:14.902Z,2.52
2023-04-28T05:43:14.886Z,2.03
2023-04-28T05:44:15.137Z,1.95
2023-04-28T05:45:14.928Z,1.55
2023-04-28T05:46:29.168Z,1.98
2023-04-28T05:47:15.966Z,2.14
2023-04-28T05:48:14.912Z,2.14
2023-04-28T05:49:14.940Z,1.92
2023-04-28T05:50:14.897Z,1.91
2023-04-28T05:51:14.903Z,2.33
2023-04-28T05:52:14.972Z,2.65
2023-04-28T05:53:14.879Z,2.02
2023-04-28T05:54:15.168Z,1.94
2023-04-28T05:55:14.901Z,2.43
2023-04-28T05:56:14.893Z,2.18
2023-04-28T05:57:14.884Z,1.61
2023-04-28T05:58:14.853Z,2.26
2023-04-28T05:59:15.054Z,1.89
2023-04-28T06:00:14.884Z,1.90
2023-04-28T06:01:15.292Z,1.59
2023-04-28T06:02:15.047Z,2.05
2023-04-28T06:03:15.139Z,1.31
2023-04-28T06:04:15.128Z,2.63
2023-04-28T06:05:15.095Z,1.94
2023-04-28T06:06:15.155Z,2.50
2023-04-28T06:07:15.127Z,1.44
2023-04-28T06:08:15.218Z,2.06
2023-04-28T06:09:15.446Z,1.75
2023-04-28T06:10:15.309Z,2.10
2023-04-28T06:11:15.350Z,1.57
2023-04-28T06:12:15.392Z,2.14
2023-04-28T06:13:15.490Z,1.42
2023-04-28T06:14:15.751Z,1.45
2023-04-28T06:15:15.549Z,1.60
2023-04-28T06:16:15.597Z,1.87
2023-04-28T06:17:15.635Z,1.16
2023-04-28T06:18:15.631Z,1.46
2023-04-28T06:19:16.718Z,1.49
2023-04-28T06:20:15.748Z,1.53
2023-04-28T06:21:15.793Z,1.98
2023-04-28T06:22:15.812Z,1.82
2023-04-28T06:23:15.843Z,1.23
2023-04-28T06:24:16.065Z,1.50
2023-04-28T06:25:15.897Z,1.75
2023-04-28T06:26:18.079Z,1.66
2023-04-28T06:27:15.931Z,1.65
2023-04-28T06:28:15.942Z,1.74
2023-04-28T06:29:15.985Z,1.78
2023-04-28T06:30:16.020Z,1.82
2023-04-28T06:31:16.049Z,1.65
2023-04-28T06:32:16.072Z,1.23
2023-04-28T06:33:16.080Z,1.73
2023-04-28T06:34:16.297Z,1.44
2023-04-28T06:35:16.134Z,1.42
2023-04-28T06:36:16.197Z,1.52
2023-04-28T06:37:16.201Z,1.44
2023-04-28T06:38:16.233Z,1.48
2023-04-28T06:39:16.255Z,1.14
2023-04-28T06:40:16.307Z,1.41
2023-04-28T06:41:16.306Z,1.28
2023-04-28T06:42:16.346Z,1.85
2023-04-28T06:43:16.316Z,1.23
2023-04-28T06:44:16.536Z,1.75
2023-04-28T06:45:16.383Z,1.63
2023-04-28T06:46:16.427Z,1.49
2023-04-28T06:47:16.412Z,2.28
2023-04-28T06:48:16.433Z,1.71
2023-04-28T06:49:16.457Z,2.06
2023-04-28T06:50:16.445Z,1.43
2023-04-28T06:51:16.461Z,1.70
2023-04-28T06:52:16.447Z,1.60
2023-04-28T06:53:16.523Z,2.36
2023-04-28T06:54:16.761Z,1.61
2023-04-28T06:55:16.458Z,1.85
2023-04-28T06:56:16.487Z,1.48
2023-04-28T06:57:16.537Z,1.39
2023-04-28T06:58:16.514Z,1.68
2023-04-28T06:59:16.542Z,2.00
2023-04-28T07:00:16.531Z,1.86
2023-04-28T07:01:16.568Z,1.67
2023-04-28T07:02:16.590Z,1.54
2023-04-28T07:03:16.545Z,1.35
2023-04-28T07:04:17.025Z,1.48
2023-04-28T07:05:16.766Z,1.77
2023-04-28T07:06:16.536Z,1.75
2023-04-28T07:07:16.519Z,1.66
2023-04-28T07:08:16.523Z,1.78
2023-04-28T07:09:16.516Z,1.34
2023-04-28T07:10:16.567Z,1.55
2023-04-28T07:11:16.551Z,1.52
2023-04-28T07:12:16.548Z,2.50
2023-04-28T07:13:16.557Z,1.70
2023-04-28T07:14:16.782Z,1.76
2023-04-28T07:15:16.564Z,1.72
2023-04-28T07:16:16.628Z,1.28
2023-04-28T07:17:16.587Z,1.49
2023-04-28T07:18:16.668Z,1.61
2023-04-28T07:19:16.592Z,1.55
2023-04-28T07:20:16.597Z,1.72
2023-04-28T07:21:16.617Z,1.54
2023-04-28T07:22:16.622Z,1.74
2023-04-28T07:23:16.674Z,1.88
2023-04-28T07:24:16.824Z,1.79
2023-04-28T07:25:16.669Z,1.85
2023-04-28T07:26:16.736Z,1.44
2023-04-28T07:27:16.718Z,1.45
2023-04-28T07:28:17.045Z,1.55
2023-04-28T07:29:16.823Z,1.77
2023-04-28T07:30:27.457Z,1.61
2023-04-28T07:31:17.772Z,1.29
2023-04-28T07:32:16.733Z,1.50
2023-04-28T07:33:16.720Z,2.20
2023-04-28T07:34:17.068Z,1.97
2023-04-28T07:35:16.723Z,1.76
2023-04-28T07:36:16.737Z,2.08
2023-04-28T07:37:16.680Z,2.09
2023-04-28T07:38:16.701Z,2.11
2023-04-28T07:39:16.658Z,3.01
2023-04-28T07:40:16.680Z,2.83
2023-04-28T07:41:16.710Z,2.95
2023-04-28T07:42:16.654Z,2.78
2023-04-28T07:43:16.664Z,2.50
2023-04-28T07:44:16.812Z,2.95
2023-04-28T07:45:16.689Z,2.38
2023-04-28T07:46:16.783Z,2.72
2023-04-28T07:47:16.827Z,2.47
2023-04-28T07:48:16.992Z,2.97
2023-04-28T07:49:16.935Z,2.65
2023-04-28T07:50:17.016Z,2.63
2023-04-28T07:51:17.013Z,2.58
2023-04-28T07:52:17.124Z,2.74
2023-04-28T07:53:17.176Z,2.22
2023-04-28T07:54:17.396Z,2.19
2023-04-28T07:55:17.312Z,2.35
2023-04-28T07:56:17.364Z,2.05
2023-04-28T07:57:17.423Z,2.09
2023-04-28T07:58:17.484Z,2.34
2023-04-28T07:59:17.517Z,1.95
2023-04-28T08:00:17.830Z,2.17
2023-04-28T08:01:17.654Z,2.01
2023-04-28T08:02:17.873Z,2.15
2023-04-28T08:03:17.895Z,2.13
2023-04-28T08:04:18.229Z,1.62
2023-04-28T08:05:18.131Z,2.27
2023-04-28T08:06:18.009Z,1.99
2023-04-28T08:07:18.030Z,2.03
2023-04-28T08:08:18.103Z,2.08
2023-04-28T08:09:18.124Z,1.94
2023-04-28T08:10:18.348Z,1.98
2023-04-28T08:11:18.375Z,1.98
2023-04-28T08:12:18.293Z,2.17
2023-04-28T08:13:18.390Z,1.84
2023-04-28T08:14:18.623Z,1.85
2023-04-28T08:15:18.621Z,1.60
2023-04-28T08:16:18.551Z,1.78
2023-04-28T08:17:18.558Z,2.25
2023-04-28T08:18:18.681Z,2.11
2023-04-28T08:19:18.631Z,1.82
2023-04-28T08:20:18.804Z,1.48
2023-04-28T08:21:18.745Z,1.82
2023-04-28T08:22:18.750Z,1.82
2023-04-28T08:23:18.820Z,1.87
2023-04-28T08:24:18.893Z,1.86
2023-04-28T08:25:18.872Z,2.05
2023-04-28T08:26:18.924Z,1.67
2023-04-28T08:27:18.988Z,2.13
2023-04-28T08:28:19.048Z,2.10
2023-04-28T08:29:19.053Z,2.26
2023-04-28T08:30:19.458Z,1.99
2023-04-28T08:31:19.215Z,2.05
2023-04-28T08:32:19.246Z,2.21
2023-04-28T08:33:19.361Z,2.42
2023-04-28T08:34:19.550Z,2.37
2023-04-28T08:35:19.526Z,2.14
2023-04-28T08:36:19.511Z,2.16
2023-04-28T08:37:19.612Z,2.10
2023-04-28T08:38:20.464Z,2.26
2023-04-28T08:39:19.630Z,2.06
2023-04-28T08:40:19.704Z,2.52
2023-04-28T08:41:19.728Z,2.48
2023-04-28T08:42:19.706Z,2.18
2023-04-28T08:43:19.771Z,2.04
2023-04-28T08:44:19.822Z,1.96
2023-04-28T08:45:19.937Z,2.33
2023-04-28T08:46:19.961Z,2.02
2023-04-28T08:47:20.008Z,2.38
2023-04-28T08:48:20.001Z,2.11
2023-04-28T08:49:20.058Z,2.24
2023-04-28T08:50:20.140Z,2.05
2023-04-28T08:51:20.180Z,2.01
2023-04-28T08:52:20.325Z,2.36
2023-04-28T08:53:20.279Z,1.96
2023-04-28T08:54:26.011Z,2.38
2023-04-28T08:55:21.346Z,2.68
2023-04-28T08:56:20.377Z,2.15
2023-04-28T08:57:20.329Z,2.12
2023-04-28T08:58:20.296Z,2.37
2023-04-28T08:59:20.385Z,2.17
2023-04-28T09:00:20.276Z,2.13
2023-04-28T09:01:20.355Z,2.32
2023-04-28T09:02:20.423Z,2.03
2023-04-28T09:03:20.418Z,2.68
2023-04-28T09:04:21.080Z,2.42
2023-04-28T09:05:20.610Z,2.46
2023-04-28T09:06:20.861Z,2.45
2023-04-28T09:07:20.457Z,2.54
2023-04-28T09:08:20.554Z,2.32
2023-04-28T09:09:20.673Z,2.28
2023-04-28T09:10:20.655Z,2.20
2023-04-28T09:11:20.732Z,2.45
2023-04-28T09:12:20.824Z,1.95
2023-04-28T09:13:20.834Z,1.94
2023-04-28T09:14:20.916Z,2.13
2023-04-28T09:15:21.000Z,2.27
2023-04-28T09:16:21.083Z,1.90
2023-04-28T09:17:21.107Z,2.17
2023-04-28T09:18:21.187Z,1.80
2023-04-28T09:19:21.268Z,1.95
2023-04-28T09:20:21.425Z,1.95
2023-04-28T09:21:21.348Z,1.94
2023-04-28T09:22:26.782Z,2.06
2023-04-28T09:23:22.436Z,1.92
2023-04-28T09:24:21.370Z,2.31
2023-04-28T09:25:21.371Z,2.08
2023-04-28T09:26:21.373Z,2.03
2023-04-28T09:27:21.446Z,2.23
2023-04-28T09:28:21.364Z,1.91
2023-04-28T09:29:21.359Z,1.98
2023-04-28T09:30:21.333Z,1.71
2023-04-28T09:31:21.425Z,2.29
2023-04-28T09:32:21.400Z,3.48
2023-04-28T09:33:21.433Z,2.02
2023-04-28T09:34:21.440Z,2.44
2023-04-28T09:35:21.465Z,2.87
2023-04-28T09:36:21.558Z,2.42
2023-04-28T09:37:21.701Z,2.09
2023-04-28T09:38:21.671Z,2.28
2023-04-28T09:39:21.691Z,2.25
2023-04-28T09:40:21.746Z,2.71
2023-04-28T09:41:21.806Z,2.44
2023-04-28T09:42:21.754Z,2.77
2023-04-28T09:43:22.239Z,2.01
2023-04-28T09:44:21.834Z,2.63
2023-04-28T09:45:21.847Z,2.69
2023-04-28T09:46:21.848Z,2.02
2023-04-28T09:47:21.802Z,2.49
2023-04-28T09:48:21.809Z,2.56
2023-04-28T09:49:22.069Z,2.43
2023-04-28T09:50:22.386Z,2.58
2023-04-28T09:51:22.345Z,2.36
2023-04-28T09:52:22.453Z,2.61
2023-04-28T09:53:22.549Z,2.45
2023-04-28T09:54:22.722Z,2.67
2023-04-28T09:55:22.884Z,2.53
2023-04-28T09:56:23.044Z,2.41
2023-04-28T09:57:23.280Z,2.88
2023-04-28T09:58:23.895Z,2.40
2023-04-28T09:59:23.891Z,2.72
2023-04-28T10:00:23.547Z,2.56
2023-04-28T10:01:23.546Z,2.28
2023-04-28T10:02:42.672Z,2.35
2023-04-28T10:03:26.058Z,2.95
2023-04-28T10:04:23.627Z,2.38
2023-04-28T10:05:23.896Z,2.85
2023-04-28T10:06:23.517Z,3.04
2023-04-28T10:07:23.532Z,3.49
2023-04-28T10:08:23.528Z,2.27
2023-04-28T10:09:24.905Z,2.04
2023-04-28T10:10:23.604Z,2.04
2023-04-28T10:11:23.494Z,2.22
2023-04-28T10:12:23.468Z,2.21
2023-04-28T10:13:23.527Z,2.41
2023-04-28T10:14:23.513Z,2.44
2023-04-28T10:15:23.527Z,2.79
2023-04-28T10:16:23.514Z,2.62
2023-04-28T10:17:23.497Z,2.31
2023-04-28T10:18:23.478Z,2.36
2023-04-28T10:19:23.490Z,2.77
2023-04-28T10:20:23.464Z,2.14
2023-04-28T10:21:23.467Z,2.28
2023-04-28T10:22:23.464Z,1.94
2023-04-28T10:23:23.445Z,2.50
2023-04-28T10:24:23.419Z,2.25
2023-04-28T10:25:23.437Z,2.37
2023-04-28T10:26:23.417Z,2.01
2023-04-28T10:27:23.396Z,2.56
2023-04-28T10:28:23.411Z,2.85
2023-04-28T10:29:23.389Z,2.48
2023-04-28T10:30:28.044Z,2.52
2023-04-28T10:31:24.440Z,2.62
2023-04-28T10:32:23.608Z,2.52
2023-04-28T10:33:23.376Z,2.11
2023-04-28T10:34:23.358Z,2.48
2023-04-28T10:35:23.347Z,2.36
2023-04-28T10:36:33.662Z,1.99
2023-04-28T10:37:24.351Z,1.50
2023-04-28T10:38:23.482Z,2.58
2023-04-28T10:39:23.334Z,2.51
2023-04-28T10:40:23.391Z,1.84
2023-04-28T10:41:23.449Z,1.76
2023-04-28T10:42:23.332Z,1.93
2023-04-28T10:43:23.345Z,1.89
2023-04-28T10:44:23.291Z,2.33
2023-04-28T10:45:23.294Z,2.03
2023-04-28T10:46:23.279Z,1.67
2023-04-28T10:47:23.329Z,2.71
2023-04-28T10:48:23.302Z,2.03
2023-04-28T10:49:23.295Z,1.96
2023-04-28T10:50:32.451Z,2.05
2023-04-28T10:51:24.305Z,2.18
2023-04-28T10:52:23.272Z,2.21
2023-04-28T10:53:23.247Z,1.90
2023-04-28T10:54:23.255Z,1.81
2023-04-28T10:55:23.224Z,2.39
2023-04-28T10:56:23.386Z,1.46
2023-04-28T10:57:23.245Z,1.58
2023-04-28T10:58:23.200Z,2.12
2023-04-28T10:59:23.182Z,1.77
2023-04-28T11:00:23.225Z,2.02
2023-04-28T11:01:23.298Z,1.54
2023-04-28T11:02:23.359Z,1.58
2023-04-28T11:03:23.516Z,1.52
2023-04-28T11:04:23.466Z,1.34
2023-04-28T11:05:23.649Z,1.73
2023-04-28T11:06:23.464Z,1.64
2023-04-28T11:07:23.515Z,1.89
2023-04-28T11:08:23.541Z,1.64
2023-04-28T11:09:23.625Z,2.06
2023-04-28T11:10:23.617Z,2.43
2023-04-28T11:11:23.639Z,1.97
2023-04-28T11:12:23.689Z,1.67
2023-04-28T11:13:23.917Z,1.95
2023-04-28T11:14:23.751Z,1.73
2023-04-28T11:15:23.794Z,2.02
2023-04-28T11:16:24.002Z,1.99
2023-04-28T11:17:23.854Z,2.59
2023-04-28T11:18:23.918Z,2.13
2023-04-28T11:19:23.963Z,2.07
2023-04-28T11:20:23.928Z,1.98
2023-04-28T11:21:24.451Z,1.41
2023-04-28T11:22:23.976Z,1.61
2023-04-28T11:23:24.056Z,1.26
2023-04-28T11:24:24.093Z,1.57
2023-04-28T11:25:24.166Z,1.54
2023-04-28T11:26:24.218Z,1.80
2023-04-28T11:27:24.224Z,1.77
2023-04-28T11:28:24.351Z,1.48
2023-04-28T11:29:24.423Z,1.79
2023-04-28T11:30:24.523Z,1.32
2023-04-28T11:31:24.550Z,1.29
2023-04-28T11:32:24.595Z,1.18
2023-04-28T11:33:24.671Z,1.84
2023-04-28T11:34:24.687Z,1.52
2023-04-28T11:35:24.729Z,1.72
2023-04-28T11:36:24.786Z,1.55
2023-04-28T11:37:24.849Z,1.62
2023-04-28T11:38:24.897Z,1.10
2023-04-28T11:39:24.912Z,1.18
2023-04-28T11:40:24.968Z,1.46
2023-04-28T11:41:24.989Z,1.28
2023-04-28T11:42:25.026Z,1.36
2023-04-28T11:43:28.916Z,1.38
2023-04-28T11:44:26.044Z,1.27
2023-04-28T11:45:25.084Z,1.38
2023-04-28T11:46:25.147Z,1.24
2023-04-28T11:47:25.047Z,1.14
2023-04-28T11:48:25.074Z,1.50
2023-04-28T11:49:25.087Z,1.29
2023-04-28T11:50:25.015Z,1.28
2023-04-28T11:51:25.029Z,1.36
2023-04-28T11:52:25.009Z,0.92
2023-04-28T11:53:25.007Z,1.29
2023-04-28T11:54:25.010Z,1.70
2023-04-28T11:55:25.017Z,1.17
2023-04-28T11:56:25.002Z,1.25
2023-04-28T11:57:25.033Z,1.04
2023-04-28T11:58:24.986Z,1.31
2023-04-28T12:00:25.037Z,0.87
2023-04-28T12:01:25.097Z,1.22
2023-04-28T12:02:25.209Z,0.94
2023-04-28T12:03:25.215Z,1.19
2023-04-28T12:04:25.202Z,1.17
2023-04-28T12:05:25.224Z,1.24
2023-04-28T12:06:25.204Z,1.56
2023-04-28T12:07:25.247Z,1.21
2023-04-28T12:08:25.287Z,1.21
2023-04-28T12:09:25.299Z,0.83
2023-04-28T12:10:25.372Z,1.22
2023-04-28T12:11:25.924Z,0.94
2023-04-28T12:12:34.963Z,0.95
2023-04-28T12:13:26.366Z,1.01
2023-04-28T12:14:25.401Z,1.46
2023-04-28T12:15:25.412Z,1.43
2023-04-28T12:16:25.402Z,1.24
2023-04-28T12:17:25.383Z,1.38
2023-04-28T12:18:25.389Z,1.10
2023-04-28T12:19:25.374Z,1.34
2023-04-28T12:20:25.347Z,1.24
2023-04-28T12:21:25.333Z,1.49
2023-04-28T12:22:25.308Z,1.05
2023-04-28T12:23:25.323Z,1.43
2023-04-28T12:24:25.326Z,0.99
2023-04-28T12:25:25.306Z,1.36
2023-04-28T12:26:25.299Z,1.35
2023-04-28T12:27:25.297Z,1.21
2023-04-28T12:28:25.321Z,1.27
2023-04-28T12:29:25.304Z,0.90
2023-04-28T12:30:25.354Z,1.14
2023-04-28T12:31:25.372Z,1.13
2023-04-28T12:32:25.416Z,1.08
2023-04-28T12:33:25.440Z,1.73
2023-04-28T12:34:25.445Z,1.39
2023-04-28T12:35:25.540Z,0.95
2023-04-28T12:36:25.506Z,1.25
2023-04-28T12:37:25.516Z,1.53
2023-04-28T12:38:25.586Z,1.03
2023-04-28T12:39:25.606Z,1.14
2023-04-28T12:40:25.645Z,1.03
2023-04-28T12:41:25.693Z,1.25
2023-04-28T12:42:25.680Z,0.91
2023-04-28T12:43:25.761Z,0.89
2023-04-28T12:44:25.775Z,1.20
2023-04-28T12:45:25.825Z,1.17
2023-04-28T12:46:25.882Z,0.56
2023-04-28T12:47:25.902Z,1.00
2023-04-28T12:48:25.916Z,0.77
2023-04-28T12:49:25.947Z,1.09
2023-04-28T12:50:25.967Z,0.94
2023-04-28T12:51:26.027Z,1.30
2023-04-28T12:52:26.044Z,1.06
2023-04-28T12:53:26.087Z,1.38
2023-04-28T12:54:26.076Z,1.09
2023-04-28T12:55:26.129Z,1.98
2023-04-28T12:56:26.165Z,1.28
2023-04-28T12:57:26.171Z,0.92
2023-04-28T12:58:26.209Z,1.30
2023-04-28T12:59:26.236Z,1.37
2023-04-28T13:00:26.282Z,1.30
2023-04-28T13:01:26.382Z,1.07
2023-04-28T13:02:26.448Z,1.14
2023-04-28T13:03:26.534Z,1.13
2023-04-28T13:04:26.537Z,0.96
2023-04-28T13:05:26.428Z,0.68
2023-04-28T13:06:26.474Z,1.06
2023-04-28T13:07:26.493Z,1.01
2023-04-28T13:08:26.516Z,1.31
2023-04-28T13:09:26.560Z,1.03
2023-04-28T13:10:26.562Z,0.82
2023-04-28T13:11:26.604Z,0.89
2023-04-28T13:12:26.641Z,1.08
2023-04-28T13:13:26.683Z,1.18
2023-04-28T13:14:26.765Z,0.97
2023-04-28T13:15:26.761Z,1.14
2023-04-28T13:16:26.791Z,1.08
2023-04-28T13:17:26.860Z,0.84
2023-04-28T13:18:26.823Z,1.16
2023-04-28T13:19:26.897Z,0.79
2023-04-28T13:20:26.941Z,0.90